sensor_id;sensor_type;location;lat;lon;timestamp;P1;durP1;ratioP1;P2;durP2;ratioP2
83199;SDS011;73092;49.132;8.920;2023-11-21T00:01:24;5.07;;;2.67;;
83199;SDS011;73092;49.132;8.920;2023-11-21T00:03:50;7.75;;;3.05;;
83199;SDS011;73092;49.132;8.920;2023-11-21T00:06:15;4.43;;;3.72;;
83199;SDS011;73092;49.132;8.920;2023-11-21T00:08:41;7.47;;;3.35;;
83199;SDS011;73092;49.132;8.920;2023-11-21T00:11:06;2.80;;;2.43;;
83199;SDS011;73092;49.132;8.920;2023-11-21T00:13:32;9.37;;;2.83;;
83199;SDS011;73092;49.132;8.920;2023-11-21T00:15:58;3.40;;;2.40;;
83199;SDS011;73092;49.132;8.920;2023-11-21T00:18:23;6.47;;;3.65;;
83199;SDS011;73092;49.132;8.920;2023-11-21T00:20:48;5.17;;;2.97;;
83199;SDS011;73092;49.132;8.920;2023-11-21T00:23:14;5.47;;;3.03;;
83199;SDS011;73092;49.132;8.920;2023-11-21T00:25:39;5.67;;;2.93;;
83199;SDS011;73092;49.132;8.920;2023-11-21T00:28:05;5.93;;;2.60;;
83199;SDS011;73092;49.132;8.920;2023-11-21T00:30:31;7.05;;;2.78;;
83199;SDS011;73092;49.132;8.920;2023-11-21T00:32:56;5.38;;;2.33;;
83199;SDS011;73092;49.132;8.920;2023-11-21T00:35:22;10.03;;;2.60;;
83199;SDS011;73092;49.132;8.920;2023-11-21T00:37:47;4.53;;;3.38;;
83199;SDS011;73092;49.132;8.920;2023-11-21T00:40:14;7.35;;;3.10;;
83199;SDS011;73092;49.132;8.920;2023-11-21T00:42:40;5.53;;;1.92;;
83199;SDS011;73092;49.132;8.920;2023-11-21T00:45:06;18.38;;;2.80;;
83199;SDS011;73092;49.132;8.920;2023-11-21T00:47:32;4.22;;;2.72;;
83199;SDS011;73092;49.132;8.920;2023-11-21T00:49:57;8.87;;;2.70;;
83199;SDS011;73092;49.132;8.920;2023-11-21T00:52:23;4.93;;;2.47;;
83199;SDS011;73092;49.132;8.920;2023-11-21T00:54:48;6.73;;;2.77;;
83199;SDS011;73092;49.132;8.920;2023-11-21T00:57:14;3.92;;;2.17;;
83199;SDS011;73092;49.132;8.920;2023-11-21T00:59:40;5.20;;;2.40;;
83199;SDS011;73092;49.132;8.920;2023-11-21T01:02:05;6.50;;;2.83;;
83199;SDS011;73092;49.132;8.920;2023-11-21T01:04:30;5.83;;;2.67;;
83199;SDS011;73092;49.132;8.920;2023-11-21T01:06:57;5.60;;;2.90;;
83199;SDS011;73092;49.132;8.920;2023-11-21T01:09:22;8.90;;;2.90;;
83199;SDS011;73092;49.132;8.920;2023-11-21T01:11:48;5.82;;;2.53;;
83199;SDS011;73092;49.132;8.920;2023-11-21T01:14:14;6.10;;;2.60;;
83199;SDS011;73092;49.132;8.920;2023-11-21T01:16:39;5.53;;;2.42;;
83199;SDS011;73092;49.132;8.920;2023-11-21T01:19:05;7.07;;;2.92;;
83199;SDS011;73092;49.132;8.920;2023-11-21T01:21:30;6.95;;;2.67;;
83199;SDS011;73092;49.132;8.920;2023-11-21T01:23:56;7.95;;;2.55;;
83199;SDS011;73092;49.132;8.920;2023-11-21T01:26:21;11.67;;;2.97;;
83199;SDS011;73092;49.132;8.920;2023-11-21T01:28:47;5.67;;;2.63;;
83199;SDS011;73092;49.132;8.920;2023-11-21T01:31:14;10.32;;;2.72;;
83199;SDS011;73092;49.132;8.920;2023-11-21T01:33:40;14.50;;;2.75;;
83199;SDS011;73092;49.132;8.920;2023-11-21T01:36:05;6.05;;;2.67;;
83199;SDS011;73092;49.132;8.920;2023-11-21T01:38:31;7.35;;;2.40;;
83199;SDS011;73092;49.132;8.920;2023-11-21T01:40:57;4.82;;;2.40;;
83199;SDS011;73092;49.132;8.920;2023-11-21T01:43:22;7.80;;;2.83;;
83199;SDS011;73092;49.132;8.920;2023-11-21T01:45:48;7.93;;;2.92;;
83199;SDS011;73092;49.132;8.920;2023-11-21T01:48:14;4.03;;;2.38;;
83199;SDS011;73092;49.132;8.920;2023-11-21T01:50:41;5.95;;;3.15;;
83199;SDS011;73092;49.132;8.920;2023-11-21T01:53:07;5.85;;;3.03;;
83199;SDS011;73092;49.132;8.920;2023-11-21T01:55:33;4.22;;;2.20;;
83199;SDS011;73092;49.132;8.920;2023-11-21T01:57:58;4.45;;;2.58;;
83199;SDS011;73092;49.132;8.920;2023-11-21T02:00:25;5.90;;;2.20;;
83199;SDS011;73092;49.132;8.920;2023-11-21T02:02:53;4.80;;;2.83;;
83199;SDS011;73092;49.132;8.920;2023-11-21T02:05:18;4.85;;;2.42;;
83199;SDS011;73092;49.132;8.920;2023-11-21T02:07:45;10.80;;;2.40;;
83199;SDS011;73092;49.132;8.920;2023-11-21T02:10:14;5.88;;;2.55;;
83199;SDS011;73092;49.132;8.920;2023-11-21T02:12:41;3.67;;;2.33;;
83199;SDS011;73092;49.132;8.920;2023-11-21T02:15:08;6.28;;;2.60;;
83199;SDS011;73092;49.132;8.920;2023-11-21T02:17:42;4.85;;;2.33;;
83199;SDS011;73092;49.132;8.920;2023-11-21T02:20:12;4.20;;;3.05;;
83199;SDS011;73092;49.132;8.920;2023-11-21T02:22:40;5.43;;;2.47;;
83199;SDS011;73092;49.132;8.920;2023-11-21T02:25:07;5.28;;;2.10;;
83199;SDS011;73092;49.132;8.920;2023-11-21T02:27:33;4.05;;;2.60;;
83199;SDS011;73092;49.132;8.920;2023-11-21T02:29:58;8.85;;;2.90;;
83199;SDS011;73092;49.132;8.920;2023-11-21T02:32:24;6.65;;;3.03;;
83199;SDS011;73092;49.132;8.920;2023-11-21T02:34:51;3.83;;;3.42;;
83199;SDS011;73092;49.132;8.920;2023-11-21T02:37:16;6.30;;;2.97;;
83199;SDS011;73092;49.132;8.920;2023-11-21T02:39:42;6.05;;;2.90;;
83199;SDS011;73092;49.132;8.920;2023-11-21T02:42:07;3.70;;;2.55;;
83199;SDS011;73092;49.132;8.920;2023-11-21T02:44:33;9.65;;;2.38;;
83199;SDS011;73092;49.132;8.920;2023-11-21T02:46:59;3.63;;;2.22;;
83199;SDS011;73092;49.132;8.920;2023-11-21T02:49:25;6.35;;;2.90;;
83199;SDS011;73092;49.132;8.920;2023-11-21T02:51:53;5.68;;;3.38;;
83199;SDS011;73092;49.132;8.920;2023-11-21T02:54:19;8.75;;;3.47;;
83199;SDS011;73092;49.132;8.920;2023-11-21T02:56:46;6.35;;;2.22;;
83199;SDS011;73092;49.132;8.920;2023-11-21T02:59:12;6.57;;;2.88;;
83199;SDS011;73092;49.132;8.920;2023-11-21T03:01:37;5.13;;;2.63;;
83199;SDS011;73092;49.132;8.920;2023-11-21T03:04:03;7.27;;;2.70;;
83199;SDS011;73092;49.132;8.920;2023-11-21T03:06:30;3.92;;;2.55;;
83199;SDS011;73092;49.132;8.920;2023-11-21T03:08:55;6.43;;;2.80;;
83199;SDS011;73092;49.132;8.920;2023-11-21T03:11:20;6.93;;;3.13;;
83199;SDS011;73092;49.132;8.920;2023-11-21T03:13:46;8.43;;;3.03;;
83199;SDS011;73092;49.132;8.920;2023-11-21T03:16:11;3.40;;;3.03;;
83199;SDS011;73092;49.132;8.920;2023-11-21T03:18:38;3.30;;;2.53;;
83199;SDS011;73092;49.132;8.920;2023-11-21T03:21:04;5.13;;;3.28;;
83199;SDS011;73092;49.132;8.920;2023-11-21T03:23:30;11.02;;;2.90;;
83199;SDS011;73092;49.132;8.920;2023-11-21T03:25:56;9.15;;;3.22;;
83199;SDS011;73092;49.132;8.920;2023-11-21T03:28:22;4.43;;;2.55;;
83199;SDS011;73092;49.132;8.920;2023-11-21T03:30:48;3.50;;;2.67;;
83199;SDS011;73092;49.132;8.920;2023-11-21T03:33:14;5.70;;;2.70;;
83199;SDS011;73092;49.132;8.920;2023-11-21T03:35:39;5.80;;;2.97;;
83199;SDS011;73092;49.132;8.920;2023-11-21T03:38:07;3.63;;;2.72;;
83199;SDS011;73092;49.132;8.920;2023-11-21T03:40:32;4.75;;;2.53;;
83199;SDS011;73092;49.132;8.920;2023-11-21T03:42:58;6.05;;;3.60;;
83199;SDS011;73092;49.132;8.920;2023-11-21T03:45:23;5.88;;;2.58;;
83199;SDS011;73092;49.132;8.920;2023-11-21T03:47:49;4.38;;;2.53;;
83199;SDS011;73092;49.132;8.920;2023-11-21T03:50:15;4.20;;;2.78;;
83199;SDS011;73092;49.132;8.920;2023-11-21T03:52:40;4.18;;;2.65;;
83199;SDS011;73092;49.132;8.920;2023-11-21T03:55:06;3.17;;;2.50;;
83199;SDS011;73092;49.132;8.920;2023-11-21T03:57:31;3.70;;;2.50;;
83199;SDS011;73092;49.132;8.920;2023-11-21T03:59:56;7.87;;;3.10;;
83199;SDS011;73092;49.132;8.920;2023-11-21T04:02:22;3.63;;;2.60;;
83199;SDS011;73092;49.132;8.920;2023-11-21T04:04:47;5.70;;;2.50;;
83199;SDS011;73092;49.132;8.920;2023-11-21T04:07:12;2.80;;;2.30;;
83199;SDS011;73092;49.132;8.920;2023-11-21T04:09:38;4.75;;;2.60;;
83199;SDS011;73092;49.132;8.920;2023-11-21T04:12:04;10.57;;;3.17;;
83199;SDS011;73092;49.132;8.920;2023-11-21T04:14:30;6.18;;;2.70;;
83199;SDS011;73092;49.132;8.920;2023-11-21T04:16:55;6.47;;;2.73;;
83199;SDS011;73092;49.132;8.920;2023-11-21T04:19:21;6.23;;;2.80;;
83199;SDS011;73092;49.132;8.920;2023-11-21T04:21:46;5.67;;;3.00;;
83199;SDS011;73092;49.132;8.920;2023-11-21T04:24:11;10.50;;;2.67;;
83199;SDS011;73092;49.132;8.920;2023-11-21T04:26:37;5.27;;;2.50;;
83199;SDS011;73092;49.132;8.920;2023-11-21T04:29:02;2.75;;;2.55;;
83199;SDS011;73092;49.132;8.920;2023-11-21T04:31:29;8.50;;;3.53;;
83199;SDS011;73092;49.132;8.920;2023-11-21T04:33:55;4.32;;;2.60;;
83199;SDS011;73092;49.132;8.920;2023-11-21T04:36:20;6.67;;;2.80;;
83199;SDS011;73092;49.132;8.920;2023-11-21T04:38:45;5.23;;;2.73;;
83199;SDS011;73092;49.132;8.920;2023-11-21T04:41:11;7.57;;;2.53;;
83199;SDS011;73092;49.132;8.920;2023-11-21T04:43:36;5.47;;;2.63;;
83199;SDS011;73092;49.132;8.920;2023-11-21T04:46:02;8.00;;;3.65;;
83199;SDS011;73092;49.132;8.920;2023-11-21T04:48:28;6.38;;;3.22;;
83199;SDS011;73092;49.132;8.920;2023-11-21T04:50:53;2.87;;;2.57;;
83199;SDS011;73092;49.132;8.920;2023-11-21T04:53:18;9.88;;;3.63;;
83199;SDS011;73092;49.132;8.920;2023-11-21T04:55:44;6.27;;;2.23;;
83199;SDS011;73092;49.132;8.920;2023-11-21T04:58:09;10.57;;;4.70;;
83199;SDS011;73092;49.132;8.920;2023-11-21T05:00:35;4.13;;;2.92;;
83199;SDS011;73092;49.132;8.920;2023-11-21T05:03:01;5.97;;;3.22;;
83199;SDS011;73092;49.132;8.920;2023-11-21T05:05:28;4.75;;;3.05;;
83199;SDS011;73092;49.132;8.920;2023-11-21T05:07:54;4.18;;;2.67;;
83199;SDS011;73092;49.132;8.920;2023-11-21T05:10:20;9.77;;;3.38;;
83199;SDS011;73092;49.132;8.920;2023-11-21T05:12:45;4.30;;;3.00;;
83199;SDS011;73092;49.132;8.920;2023-11-21T05:15:13;3.88;;;3.20;;
83199;SDS011;73092;49.132;8.920;2023-11-21T05:17:40;6.20;;;2.75;;
83199;SDS011;73092;49.132;8.920;2023-11-21T05:20:15;12.10;;;3.40;;
83199;SDS011;73092;49.132;8.920;2023-11-21T05:22:48;5.10;;;3.17;;
83199;SDS011;73092;49.132;8.920;2023-11-21T05:25:14;3.92;;;3.03;;
83199;SDS011;73092;49.132;8.920;2023-11-21T05:27:39;4.20;;;3.60;;
83199;SDS011;73092;49.132;8.920;2023-11-21T05:30:05;6.00;;;3.03;;
83199;SDS011;73092;49.132;8.920;2023-11-21T05:32:31;5.60;;;3.25;;
83199;SDS011;73092;49.132;8.920;2023-11-21T05:34:57;4.82;;;3.15;;
83199;SDS011;73092;49.132;8.920;2023-11-21T05:37:23;3.85;;;2.97;;
83199;SDS011;73092;49.132;8.920;2023-11-21T05:39:49;6.03;;;3.27;;
83199;SDS011;73092;49.132;8.920;2023-11-21T05:42:14;3.97;;;2.95;;
83199;SDS011;73092;49.132;8.920;2023-11-21T05:44:41;4.55;;;3.30;;
83199;SDS011;73092;49.132;8.920;2023-11-21T05:47:08;4.68;;;3.53;;
83199;SDS011;73092;49.132;8.920;2023-11-21T05:49:33;6.47;;;3.92;;
83199;SDS011;73092;49.132;8.920;2023-11-21T05:51:59;7.40;;;3.20;;
83199;SDS011;73092;49.132;8.920;2023-11-21T05:54:24;4.97;;;3.58;;
83199;SDS011;73092;49.132;8.920;2023-11-21T05:56:50;5.70;;;3.65;;
83199;SDS011;73092;49.132;8.920;2023-11-21T05:59:15;3.57;;;2.90;;
83199;SDS011;73092;49.132;8.920;2023-11-21T06:01:41;8.03;;;3.80;;
83199;SDS011;73092;49.132;8.920;2023-11-21T06:04:06;7.03;;;3.93;;
83199;SDS011;73092;49.132;8.920;2023-11-21T06:06:35;7.55;;;3.78;;
83199;SDS011;73092;49.132;8.920;2023-11-21T06:09:00;6.43;;;3.85;;
83199;SDS011;73092;49.132;8.920;2023-11-21T06:11:26;9.50;;;4.07;;
83199;SDS011;73092;49.132;8.920;2023-11-21T06:13:51;11.80;;;4.93;;
83199;SDS011;73092;49.132;8.920;2023-11-21T06:16:18;10.18;;;5.90;;
83199;SDS011;73092;49.132;8.920;2023-11-21T06:18:45;20.63;;;7.90;;
83199;SDS011;73092;49.132;8.920;2023-11-21T06:21:10;12.35;;;6.40;;
83199;SDS011;73092;49.132;8.920;2023-11-21T06:23:37;10.95;;;5.72;;
83199;SDS011;73092;49.132;8.920;2023-11-21T06:26:03;10.35;;;5.47;;
83199;SDS011;73092;49.132;8.920;2023-11-21T06:28:29;8.38;;;4.82;;
83199;SDS011;73092;49.132;8.920;2023-11-21T06:30:55;9.35;;;5.68;;
83199;SDS011;73092;49.132;8.920;2023-11-21T06:33:21;8.90;;;4.88;;
83199;SDS011;73092;49.132;8.920;2023-11-21T06:35:46;10.95;;;5.10;;
83199;SDS011;73092;49.132;8.920;2023-11-21T06:38:12;9.50;;;5.20;;
83199;SDS011;73092;49.132;8.920;2023-11-21T06:40:37;12.50;;;4.57;;
83199;SDS011;73092;49.132;8.920;2023-11-21T06:43:04;12.60;;;5.63;;
83199;SDS011;73092;49.132;8.920;2023-11-21T06:45:30;7.70;;;3.85;;
83199;SDS011;73092;49.132;8.920;2023-11-21T06:47:55;8.53;;;4.70;;
83199;SDS011;73092;49.132;8.920;2023-11-21T06:50:20;8.17;;;5.03;;
83199;SDS011;73092;49.132;8.920;2023-11-21T06:52:46;8.63;;;4.93;;
83199;SDS011;73092;49.132;8.920;2023-11-21T06:55:12;9.85;;;5.07;;
83199;SDS011;73092;49.132;8.920;2023-11-21T06:57:38;12.20;;;5.40;;
83199;SDS011;73092;49.132;8.920;2023-11-21T07:00:03;12.53;;;4.57;;
83199;SDS011;73092;49.132;8.920;2023-11-21T07:02:29;9.35;;;5.22;;
83199;SDS011;73092;49.132;8.920;2023-11-21T07:04:55;15.87;;;6.03;;
83199;SDS011;73092;49.132;8.920;2023-11-21T07:07:20;11.20;;;5.60;;
83199;SDS011;73092;49.132;8.920;2023-11-21T07:09:45;9.93;;;5.70;;
83199;SDS011;73092;49.132;8.920;2023-11-21T07:12:11;14.40;;;5.85;;
83199;SDS011;73092;49.132;8.920;2023-11-21T07:14:37;11.77;;;6.47;;
83199;SDS011;73092;49.132;8.920;2023-11-21T07:17:04;10.13;;;6.13;;
83199;SDS011;73092;49.132;8.920;2023-11-21T07:19:29;12.80;;;6.43;;
83199;SDS011;73092;49.132;8.920;2023-11-21T07:21:55;9.52;;;5.47;;
83199;SDS011;73092;49.132;8.920;2023-11-21T07:24:21;8.30;;;5.22;;
83199;SDS011;73092;49.132;8.920;2023-11-21T07:26:48;7.35;;;4.78;;
83199;SDS011;73092;49.132;8.920;2023-11-21T07:29:13;8.02;;;5.45;;
83199;SDS011;73092;49.132;8.920;2023-11-21T07:31:39;9.32;;;5.15;;
83199;SDS011;73092;49.132;8.920;2023-11-21T07:34:06;10.15;;;5.70;;
83199;SDS011;73092;49.132;8.920;2023-11-21T07:36:31;8.48;;;4.07;;
83199;SDS011;73092;49.132;8.920;2023-11-21T07:38:56;9.90;;;5.17;;
83199;SDS011;73092;49.132;8.920;2023-11-21T07:41:22;9.70;;;5.87;;
83199;SDS011;73092;49.132;8.920;2023-11-21T07:43:47;11.68;;;6.32;;
83199;SDS011;73092;49.132;8.920;2023-11-21T07:46:13;9.68;;;5.07;;
83199;SDS011;73092;49.132;8.920;2023-11-21T07:48:39;9.18;;;6.50;;
83199;SDS011;73092;49.132;8.920;2023-11-21T07:51:05;10.18;;;6.13;;
83199;SDS011;73092;49.132;8.920;2023-11-21T07:53:31;9.50;;;5.30;;
83199;SDS011;73092;49.132;8.920;2023-11-21T07:55:58;9.20;;;4.95;;
83199;SDS011;73092;49.132;8.920;2023-11-21T07:58:29;7.13;;;4.85;;
83199;SDS011;73092;49.132;8.920;2023-11-21T08:00:55;6.28;;;4.70;;
83199;SDS011;73092;49.132;8.920;2023-11-21T08:03:21;6.80;;;4.10;;
83199;SDS011;73092;49.132;8.920;2023-11-21T08:05:46;6.80;;;4.07;;
83199;SDS011;73092;49.132;8.920;2023-11-21T08:08:12;9.77;;;4.75;;
83199;SDS011;73092;49.132;8.920;2023-11-21T08:10:38;8.45;;;4.95;;
83199;SDS011;73092;49.132;8.920;2023-11-21T08:13:04;7.28;;;4.65;;
83199;SDS011;73092;49.132;8.920;2023-11-21T08:15:30;7.72;;;4.60;;
83199;SDS011;73092;49.132;8.920;2023-11-21T08:17:58;8.65;;;4.70;;
83199;SDS011;73092;49.132;8.920;2023-11-21T08:20:24;8.33;;;5.40;;
83199;SDS011;73092;49.132;8.920;2023-11-21T08:22:50;6.30;;;4.72;;
83199;SDS011;73092;49.132;8.920;2023-11-21T08:25:16;7.53;;;4.75;;
83199;SDS011;73092;49.132;8.920;2023-11-21T08:27:46;12.77;;;4.72;;
83199;SDS011;73092;49.132;8.920;2023-11-21T08:30:12;6.28;;;4.13;;
83199;SDS011;73092;49.132;8.920;2023-11-21T08:32:39;8.25;;;4.55;;
83199;SDS011;73092;49.132;8.920;2023-11-21T08:35:07;5.57;;;4.40;;
83199;SDS011;73092;49.132;8.920;2023-11-21T08:37:32;5.93;;;4.47;;
83199;SDS011;73092;49.132;8.920;2023-11-21T08:40:02;6.00;;;4.55;;
83199;SDS011;73092;49.132;8.920;2023-11-21T08:42:28;7.60;;;5.32;;
83199;SDS011;73092;49.132;8.920;2023-11-21T08:44:55;9.77;;;5.60;;
83199;SDS011;73092;49.132;8.920;2023-11-21T08:47:23;8.48;;;6.05;;
83199;SDS011;73092;49.132;8.920;2023-11-21T08:49:52;6.95;;;5.20;;
83199;SDS011;73092;49.132;8.920;2023-11-21T08:52:20;6.63;;;4.90;;
83199;SDS011;73092;49.132;8.920;2023-11-21T08:54:47;13.43;;;5.90;;
83199;SDS011;73092;49.132;8.920;2023-11-21T08:57:24;8.68;;;6.35;;
83199;SDS011;73092;49.132;8.920;2023-11-21T08:59:49;7.30;;;4.93;;
83199;SDS011;73092;49.132;8.920;2023-11-21T09:02:20;9.57;;;4.57;;
83199;SDS011;73092;49.132;8.920;2023-11-21T09:04:48;10.05;;;7.28;;
83199;SDS011;73092;49.132;8.920;2023-11-21T09:07:14;5.90;;;4.25;;
83199;SDS011;73092;49.132;8.920;2023-11-21T09:09:39;4.83;;;4.17;;
83199;SDS011;73092;49.132;8.920;2023-11-21T09:12:05;5.23;;;4.23;;
83199;SDS011;73092;49.132;8.920;2023-11-21T09:14:31;7.03;;;5.05;;
83199;SDS011;73092;49.132;8.920;2023-11-21T09:16:56;8.07;;;5.20;;
83199;SDS011;73092;49.132;8.920;2023-11-21T09:19:22;12.00;;;7.60;;
83199;SDS011;73092;49.132;8.920;2023-11-21T09:21:47;11.07;;;6.23;;
83199;SDS011;73092;49.132;8.920;2023-11-21T09:24:12;8.93;;;6.30;;
83199;SDS011;73092;49.132;8.920;2023-11-21T09:26:38;9.10;;;6.90;;
83199;SDS011;73092;49.132;8.920;2023-11-21T09:29:03;13.95;;;7.30;;
83199;SDS011;73092;49.132;8.920;2023-11-21T09:31:29;11.90;;;7.50;;
83199;SDS011;73092;49.132;8.920;2023-11-21T09:33:56;8.85;;;6.25;;
83199;SDS011;73092;49.132;8.920;2023-11-21T09:36:22;10.30;;;7.30;;
83199;SDS011;73092;49.132;8.920;2023-11-21T09:38:52;9.98;;;5.88;;
83199;SDS011;73092;49.132;8.920;2023-11-21T09:41:23;8.38;;;5.95;;
83199;SDS011;73092;49.132;8.920;2023-11-21T09:44:02;8.00;;;5.85;;
83199;SDS011;73092;49.132;8.920;2023-11-21T09:46:32;11.60;;;5.90;;
83199;SDS011;73092;49.132;8.920;2023-11-21T09:48:58;7.57;;;6.07;;
83199;SDS011;73092;49.132;8.920;2023-11-21T09:51:30;12.00;;;8.27;;
83199;SDS011;73092;49.132;8.920;2023-11-21T09:53:58;8.73;;;6.15;;
83199;SDS011;73092;49.132;8.920;2023-11-21T09:56:26;13.82;;;9.82;;
83199;SDS011;73092;49.132;8.920;2023-11-21T09:58:52;11.55;;;7.53;;
83199;SDS011;73092;49.132;8.920;2023-11-21T10:01:18;10.10;;;7.88;;
83199;SDS011;73092;49.132;8.920;2023-11-21T10:03:45;13.57;;;8.50;;
83199;SDS011;73092;49.132;8.920;2023-11-21T10:06:12;12.20;;;8.10;;
83199;SDS011;73092;49.132;8.920;2023-11-21T10:08:39;16.23;;;8.57;;
83199;SDS011;73092;49.132;8.920;2023-11-21T10:11:05;15.75;;;10.15;;
83199;SDS011;73092;49.132;8.920;2023-11-21T10:13:34;15.10;;;9.07;;
83199;SDS011;73092;49.132;8.920;2023-11-21T10:16:00;16.83;;;10.63;;
83199;SDS011;73092;49.132;8.920;2023-11-21T10:18:25;14.85;;;7.90;;
83199;SDS011;73092;49.132;8.920;2023-11-21T10:20:52;14.85;;;8.98;;
83199;SDS011;73092;49.132;8.920;2023-11-21T10:23:19;15.77;;;10.15;;
83199;SDS011;73092;49.132;8.920;2023-11-21T10:25:47;16.88;;;9.80;;
83199;SDS011;73092;49.132;8.920;2023-11-21T10:28:15;17.40;;;9.27;;
83199;SDS011;73092;49.132;8.920;2023-11-21T10:30:41;42.73;;;19.33;;
83199;SDS011;73092;49.132;8.920;2023-11-21T10:33:07;43.70;;;18.90;;
83199;SDS011;73092;49.132;8.920;2023-11-21T10:35:42;35.60;;;17.20;;
83199;SDS011;73092;49.132;8.920;2023-11-21T10:38:12;21.25;;;11.88;;
83199;SDS011;73092;49.132;8.920;2023-11-21T10:40:39;27.63;;;13.25;;
83199;SDS011;73092;49.132;8.920;2023-11-21T10:43:06;19.67;;;11.20;;
83199;SDS011;73092;49.132;8.920;2023-11-21T10:45:34;23.42;;;11.95;;
83199;SDS011;73092;49.132;8.920;2023-11-21T10:48:04;18.27;;;9.48;;
83199;SDS011;73092;49.132;8.920;2023-11-21T10:50:32;21.30;;;10.95;;
83199;SDS011;73092;49.132;8.920;2023-11-21T10:53:00;21.45;;;11.55;;
83199;SDS011;73092;49.132;8.920;2023-11-21T10:55:27;22.02;;;11.68;;
83199;SDS011;73092;49.132;8.920;2023-11-21T10:57:53;23.77;;;11.52;;
83199;SDS011;73092;49.132;8.920;2023-11-21T11:00:19;20.52;;;11.05;;
83199;SDS011;73092;49.132;8.920;2023-11-21T11:02:50;22.40;;;11.65;;
83199;SDS011;73092;49.132;8.920;2023-11-21T11:05:20;18.58;;;10.10;;
83199;SDS011;73092;49.132;8.920;2023-11-21T11:07:50;27.42;;;12.40;;
83199;SDS011;73092;49.132;8.920;2023-11-21T11:10:24;25.13;;;13.55;;
83199;SDS011;73092;49.132;8.920;2023-11-21T11:12:52;23.42;;;12.35;;
83199;SDS011;73092;49.132;8.920;2023-11-21T11:15:19;26.30;;;13.20;;
83199;SDS011;73092;49.132;8.920;2023-11-21T11:17:45;24.60;;;11.70;;
83199;SDS011;73092;49.132;8.920;2023-11-21T11:20:12;17.85;;;8.82;;
83199;SDS011;73092;49.132;8.920;2023-11-21T11:22:43;20.10;;;12.35;;
83199;SDS011;73092;49.132;8.920;2023-11-21T11:27:48;19.38;;;10.57;;
83199;SDS011;73092;49.132;8.920;2023-11-21T11:36:49;6.97;;;3.72;;
83199;SDS011;73092;49.132;8.920;2023-11-21T11:39:28;3.47;;;2.92;;
83199;SDS011;73092;49.132;8.920;2023-11-21T11:41:57;3.28;;;2.90;;
83199;SDS011;73092;49.132;8.920;2023-11-21T11:54:59;4.25;;;3.10;;
83199;SDS011;73092;49.132;8.920;2023-11-21T11:57:25;3.67;;;3.38;;
83199;SDS011;73092;49.132;8.920;2023-11-21T12:02:37;6.82;;;3.33;;
83199;SDS011;73092;49.132;8.920;2023-11-21T12:05:13;5.32;;;4.07;;
83199;SDS011;73092;49.132;8.920;2023-11-21T12:07:47;8.50;;;4.45;;
83199;SDS011;73092;49.132;8.920;2023-11-21T12:10:22;4.18;;;2.90;;
83199;SDS011;73092;49.132;8.920;2023-11-21T12:12:52;5.55;;;3.80;;
83199;SDS011;73092;49.132;8.920;2023-11-21T12:15:19;5.53;;;3.85;;
83199;SDS011;73092;49.132;8.920;2023-11-21T12:17:46;5.95;;;3.58;;
83199;SDS011;73092;49.132;8.920;2023-11-21T12:20:12;8.55;;;4.47;;
83199;SDS011;73092;49.132;8.920;2023-11-21T12:22:45;5.25;;;3.78;;
83199;SDS011;73092;49.132;8.920;2023-11-21T12:25:13;11.20;;;4.35;;
83199;SDS011;73092;49.132;8.920;2023-11-21T12:27:41;5.15;;;3.25;;
83199;SDS011;73092;49.132;8.920;2023-11-21T12:30:08;7.22;;;3.92;;
83199;SDS011;73092;49.132;8.920;2023-11-21T12:32:38;5.95;;;3.55;;
83199;SDS011;73092;49.132;8.920;2023-11-21T12:35:11;23.25;;;6.78;;
83199;SDS011;73092;49.132;8.920;2023-11-21T12:37:40;4.38;;;3.20;;
83199;SDS011;73092;49.132;8.920;2023-11-21T12:40:09;4.63;;;3.13;;
83199;SDS011;73092;49.132;8.920;2023-11-21T12:42:47;7.68;;;3.83;;
83199;SDS011;73092;49.132;8.920;2023-11-21T12:47:54;4.63;;;3.47;;
83199;SDS011;73092;49.132;8.920;2023-11-21T12:50:25;6.30;;;3.63;;
83199;SDS011;73092;49.132;8.920;2023-11-21T12:55:24;5.25;;;4.00;;
83199;SDS011;73092;49.132;8.920;2023-11-21T12:57:51;4.78;;;3.22;;
83199;SDS011;73092;49.132;8.920;2023-11-21T13:00:19;6.70;;;3.42;;
83199;SDS011;73092;49.132;8.920;2023-11-21T13:02:55;7.40;;;3.70;;
83199;SDS011;73092;49.132;8.920;2023-11-21T13:05:32;3.85;;;3.20;;
83199;SDS011;73092;49.132;8.920;2023-11-21T13:08:00;6.97;;;4.97;;
83199;SDS011;73092;49.132;8.920;2023-11-21T13:10:28;5.65;;;4.65;;
83199;SDS011;73092;49.132;8.920;2023-11-21T13:12:56;7.82;;;4.57;;
83199;SDS011;73092;49.132;8.920;2023-11-21T13:15:24;7.78;;;4.93;;
83199;SDS011;73092;49.132;8.920;2023-11-21T13:17:49;7.07;;;4.97;;
83199;SDS011;73092;49.132;8.920;2023-11-21T13:20:16;6.40;;;4.45;;
83199;SDS011;73092;49.132;8.920;2023-11-21T13:22:47;9.35;;;4.43;;
83199;SDS011;73092;49.132;8.920;2023-11-21T13:25:14;9.43;;;4.90;;
83199;SDS011;73092;49.132;8.920;2023-11-21T13:27:43;5.70;;;4.85;;
83199;SDS011;73092;49.132;8.920;2023-11-21T13:30:09;8.90;;;6.07;;
83199;SDS011;73092;49.132;8.920;2023-11-21T13:32:35;9.70;;;5.80;;
83199;SDS011;73092;49.132;8.920;2023-11-21T13:35:00;54.50;;;12.07;;
83199;SDS011;73092;49.132;8.920;2023-11-21T13:37:26;17.13;;;7.40;;
83199;SDS011;73092;49.132;8.920;2023-11-21T13:39:53;16.95;;;6.25;;
83199;SDS011;73092;49.132;8.920;2023-11-21T13:42:20;12.93;;;7.50;;
83199;SDS011;73092;49.132;8.920;2023-11-21T13:44:56;11.02;;;6.85;;
83199;SDS011;73092;49.132;8.920;2023-11-21T13:47:22;11.75;;;5.63;;
83199;SDS011;73092;49.132;8.920;2023-11-21T13:49:50;9.05;;;6.55;;
83199;SDS011;73092;49.132;8.920;2023-11-21T13:52:15;12.77;;;7.23;;
83199;SDS011;73092;49.132;8.920;2023-11-21T13:54:42;13.43;;;7.10;;
83199;SDS011;73092;49.132;8.920;2023-11-21T13:57:08;11.45;;;7.45;;
83199;SDS011;73092;49.132;8.920;2023-11-21T13:59:34;10.77;;;6.03;;
83199;SDS011;73092;49.132;8.920;2023-11-21T14:02:01;12.07;;;7.78;;
83199;SDS011;73092;49.132;8.920;2023-11-21T14:04:42;9.48;;;6.00;;
83199;SDS011;73092;49.132;8.920;2023-11-21T14:07:21;10.13;;;5.63;;
83199;SDS011;73092;49.132;8.920;2023-11-21T14:10:00;8.45;;;5.50;;
83199;SDS011;73092;49.132;8.920;2023-11-21T14:12:29;9.65;;;6.35;;
83199;SDS011;73092;49.132;8.920;2023-11-21T14:14:59;9.20;;;5.82;;
83199;SDS011;73092;49.132;8.920;2023-11-21T14:17:25;11.98;;;6.47;;
83199;SDS011;73092;49.132;8.920;2023-11-21T14:19:50;11.90;;;6.95;;
83199;SDS011;73092;49.132;8.920;2023-11-21T14:22:15;7.37;;;5.13;;
83199;SDS011;73092;49.132;8.920;2023-11-21T14:24:42;8.35;;;5.47;;
83199;SDS011;73092;49.132;8.920;2023-11-21T14:27:11;5.30;;;3.85;;
83199;SDS011;73092;49.132;8.920;2023-11-21T14:29:37;10.02;;;4.72;;
83199;SDS011;73092;49.132;8.920;2023-11-21T14:32:08;6.57;;;4.47;;
83199;SDS011;73092;49.132;8.920;2023-11-21T14:34:34;5.20;;;4.35;;
83199;SDS011;73092;49.132;8.920;2023-11-21T14:36:59;5.30;;;4.43;;
83199;SDS011;73092;49.132;8.920;2023-11-21T14:39:27;7.60;;;4.88;;
83199;SDS011;73092;49.132;8.920;2023-11-21T14:41:53;6.72;;;5.38;;
83199;SDS011;73092;49.132;8.920;2023-11-21T14:44:24;8.50;;;5.10;;
83199;SDS011;73092;49.132;8.920;2023-11-21T14:46:52;15.40;;;7.50;;
83199;SDS011;73092;49.132;8.920;2023-11-21T14:49:19;6.38;;;4.20;;
83199;SDS011;73092;49.132;8.920;2023-11-21T14:51:46;8.18;;;4.05;;
83199;SDS011;73092;49.132;8.920;2023-11-21T14:54:26;4.65;;;4.18;;
83199;SDS011;73092;49.132;8.920;2023-11-21T14:57:11;5.38;;;3.83;;
83199;SDS011;73092;49.132;8.920;2023-11-21T14:59:44;8.63;;;3.42;;
83199;SDS011;73092;49.132;8.920;2023-11-21T15:02:17;9.05;;;4.68;;
83199;SDS011;73092;49.132;8.920;2023-11-21T15:04:47;12.52;;;5.00;;
83199;SDS011;73092;49.132;8.920;2023-11-21T15:07:17;8.02;;;5.15;;
83199;SDS011;73092;49.132;8.920;2023-11-21T15:09:43;8.65;;;5.32;;